sensor_id;sensor_type;location;lat;lon;timestamp;P1;P2;P0
44045;PMS7003;29709;52.396;16.796;2023-04-25T00:01:29;0;0;0
44045;PMS7003;29709;52.396;16.796;2023-04-25T00:04:42;1;0;0
44045;PMS7003;29709;52.396;16.796;2023-04-25T00:07:56;0;0;0
44045;PMS7003;29709;52.396;16.796;2023-04-25T00:11:10;1;0;0
44045;PMS7003;29709;52.396;16.796;2023-04-25T00:14:23;0;0;0
44045;PMS7003;29709;52.396;16.796;2023-04-25T00:17:37;2;0;0
44045;PMS7003;29709;52.396;16.796;2023-04-25T00:20:53;0;0;0
44045;PMS7003;29709;52.396;16.796;2023-04-25T00:24:07;1;0;0
44045;PMS7003;29709;52.396;16.796;2023-04-25T00:27:20;0;0;0
44045;PMS7003;29709;52.396;16.796;2023-04-25T00:30:33;0;0;0
44045;PMS7003;29709;52.396;16.796;2023-04-25T00:33:47;0;0;0
44045;PMS7003;29709;52.396;16.796;2023-04-25T00:37:00;0;0;0
44045;PMS7003;29709;52.396;16.796;2023-04-25T00:40:18;0;0;0
44045;PMS7003;29709;52.396;16.796;2023-04-25T00:43:31;0;0;0
44045;PMS7003;29709;52.396;16.796;2023-04-25T00:46:45;0;0;0
44045;PMS7003;29709;52.396;16.796;2023-04-25T00:50:04;0;0;0
44045;PMS7003;29709;52.396;16.796;2023-04-25T00:53:18;0;0;0
44045;PMS7003;29709;52.396;16.796;2023-04-25T00:56:32;0;0;0
44045;PMS7003;29709;52.396;16.796;2023-04-25T00:59:45;0;0;0
44045;PMS7003;29709;52.396;16.796;2023-04-25T01:03:01;0;0;0
44045;PMS7003;29709;52.396;16.796;2023-04-25T01:06:16;0;0;0
44045;PMS7003;29709;52.396;16.796;2023-04-25T01:09:29;0;0;0
44045;PMS7003;29709;52.396;16.796;2023-04-25T01:12:44;0;0;0
44045;PMS7003;29709;52.396;16.796;2023-04-25T01:15:58;0;0;0
44045;PMS7003;29709;52.396;16.796;2023-04-25T01:19:12;0;0;0
44045;PMS7003;29709;52.396;16.796;2023-04-25T01:22:31;0;0;0
44045;PMS7003;29709;52.396;16.796;2023-04-25T01:25:45;0;0;0
44045;PMS7003;29709;52.396;16.796;2023-04-25T01:28:59;0;0;0
44045;PMS7003;29709;52.396;16.796;2023-04-25T01:32:13;0;0;0
44045;PMS7003;29709;52.396;16.796;2023-04-25T01:35:27;0;0;0
44045;PMS7003;29709;52.396;16.796;2023-04-25T01:38:40;0;0;0
44045;PMS7003;29709;52.396;16.796;2023-04-25T01:41:54;0;0;0
44045;PMS7003;29709;52.396;16.796;2023-04-25T01:45:09;0;0;0
44045;PMS7003;29709;52.396;16.796;2023-04-25T01:48:23;0;0;0
44045;PMS7003;29709;52.396;16.796;2023-04-25T01:51:36;0;0;0
44045;PMS7003;29709;52.396;16.796;2023-04-25T01:54:49;0;0;0
44045;PMS7003;29709;52.396;16.796;2023-04-25T01:58:03;0;0;0
44045;PMS7003;29709;52.396;16.796;2023-04-25T02:01:22;0;0;0
44045;PMS7003;29709;52.396;16.796;2023-04-25T02:04:35;0;0;0
44045;PMS7003;29709;52.396;16.796;2023-04-25T02:07:48;0;0;0
44045;PMS7003;29709;52.396;16.796;2023-04-25T02:11:01;0;0;0
44045;PMS7003;29709;52.396;16.796;2023-04-25T02:14:16;0;0;0
44045;PMS7003;29709;52.396;16.796;2023-04-25T02:17:29;0;0;0
44045;PMS7003;29709;52.396;16.796;2023-04-25T02:20:45;2;0;0
44045;PMS7003;29709;52.396;16.796;2023-04-25T02:23:58;0;0;0
44045;PMS7003;29709;52.396;16.796;2023-04-25T02:27:13;0;0;0
44045;PMS7003;29709;52.396;16.796;2023-04-25T02:30:26;0;0;0
44045;PMS7003;29709;52.396;16.796;2023-04-25T02:33:39;0;0;0
44045;PMS7003;29709;52.396;16.796;2023-04-25T02:36:52;0;0;0
44045;PMS7003;29709;52.396;16.796;2023-04-25T02:40:06;0;0;0
44045;PMS7003;29709;52.396;16.796;2023-04-25T02:43:20;0;0;0
44045;PMS7003;29709;52.396;16.796;2023-04-25T02:46:34;0;0;0
44045;PMS7003;29709;52.396;16.796;2023-04-25T02:49:48;1;0;0
44045;PMS7003;29709;52.396;16.796;2023-04-25T02:53:01;0;0;0
44045;PMS7003;29709;52.396;16.796;2023-04-25T02:56:14;0;0;0
44045;PMS7003;29709;52.396;16.796;2023-04-25T02:59:27;0;0;0
44045;PMS7003;29709;52.396;16.796;2023-04-25T03:02:40;0;0;0
44045;PMS7003;29709;52.396;16.796;2023-04-25T03:05:53;0;0;0
44045;PMS7003;29709;52.396;16.796;2023-04-25T03:09:06;1;0;0
44045;PMS7003;29709;52.396;16.796;2023-04-25T03:12:20;1;0;0
44045;PMS7003;29709;52.396;16.796;2023-04-25T03:15:34;0;0;0
44045;PMS7003;29709;52.396;16.796;2023-04-25T03:18:50;0;0;0
44045;PMS7003;29709;52.396;16.796;2023-04-25T03:22:03;1;1;0
44045;PMS7003;29709;52.396;16.796;2023-04-25T03:25:16;0;0;0
44045;PMS7003;29709;52.396;16.796;2023-04-25T03:28:29;0;0;0
44045;PMS7003;29709;52.396;16.796;2023-04-25T03:31:42;1;1;0
44045;PMS7003;29709;52.396;16.796;2023-04-25T03:34:55;1;0;0
44045;PMS7003;29709;52.396;16.796;2023-04-25T03:38:09;1;1;0
44045;PMS7003;29709;52.396;16.796;2023-04-25T03:41:22;3;2;1
44045;PMS7003;29709;52.396;16.796;2023-04-25T03:44:35;1;1;1
44045;PMS7003;29709;52.396;16.796;2023-04-25T03:47:48;0;0;0
44045;PMS7003;29709;52.396;16.796;2023-04-25T03:51:02;0;0;0
44045;PMS7003;29709;52.396;16.796;2023-04-25T03:54:15;2;1;1
44045;PMS7003;29709;52.396;16.796;2023-04-25T03:57:28;1;1;1
44045;PMS7003;29709;52.396;16.796;2023-04-25T04:00:42;1;0;0
44045;PMS7003;29709;52.396;16.796;2023-04-25T04:03:55;1;0;0
44045;PMS7003;29709;52.396;16.796;2023-04-25T04:07:09;1;1;1
44045;PMS7003;29709;52.396;16.796;2023-04-25T04:10:23;1;1;1
44045;PMS7003;29709;52.396;16.796;2023-04-25T04:13:36;2;0;0
44045;PMS7003;29709;52.396;16.796;2023-04-25T04:16:50;0;0;0
44045;PMS7003;29709;52.396;16.796;2023-04-25T04:20:04;2;2;1
44045;PMS7003;29709;52.396;16.796;2023-04-25T04:23:19;1;1;1
44045;PMS7003;29709;52.396;16.796;2023-04-25T04:26:35;3;3;2
44045;PMS7003;29709;52.396;16.796;2023-04-25T04:29:51;3;3;2
44045;PMS7003;29709;52.396;16.796;2023-04-25T04:33:05;2;2;1
44045;PMS7003;29709;52.396;16.796;2023-04-25T04:36:19;1;1;1
44045;PMS7003;29709;52.396;16.796;2023-04-25T04:39:35;2;2;2
44045;PMS7003;29709;52.396;16.796;2023-04-25T04:42:49;3;1;1
44045;PMS7003;29709;52.396;16.796;2023-04-25T04:46:02;1;1;0
44045;PMS7003;29709;52.396;16.796;2023-04-25T04:49:18;3;1;1
44045;PMS7003;29709;52.396;16.796;2023-04-25T04:52:31;2;1;1
44045;PMS7003;29709;52.396;16.796;2023-04-25T04:55:45;2;2;1
44045;PMS7003;29709;52.396;16.796;2023-04-25T04:58:58;1;1;1
44045;PMS7003;29709;52.396;16.796;2023-04-25T05:02:12;1;1;1
44045;PMS7003;29709;52.396;16.796;2023-04-25T05:05:25;3;2;2
44045;PMS7003;29709;52.396;16.796;2023-04-25T05:08:38;2;1;0
44045;PMS7003;29709;52.396;16.796;2023-04-25T05:11:53;2;1;1
44045;PMS7003;29709;52.396;16.796;2023-04-25T05:15:06;1;1;0
44045;PMS7003;29709;52.396;16.796;2023-04-25T05:18:20;0;0;0
44045;PMS7003;29709;52.396;16.796;2023-04-25T05:21:33;2;0;0
44045;PMS7003;29709;52.396;16.796;2023-04-25T05:24:47;2;1;0
44045;PMS7003;29709;52.396;16.796;2023-04-25T05:28:02;1;1;1
44045;PMS7003;29709;52.396;16.796;2023-04-25T05:31:15;1;1;1
44045;PMS7003;29709;52.396;16.796;2023-04-25T05:34:28;1;1;0
44045;PMS7003;29709;52.396;16.796;2023-04-25T05:37:41;0;0;0
44045;PMS7003;29709;52.396;16.796;2023-04-25T05:40:55;2;1;1
44045;PMS7003;29709;52.396;16.796;2023-04-25T05:44:08;1;1;1
44045;PMS7003;29709;52.396;16.796;2023-04-25T05:47:22;1;1;0
44045;PMS7003;29709;52.396;16.796;2023-04-25T05:50:35;1;1;1
44045;PMS7003;29709;52.396;16.796;2023-04-25T05:53:48;1;0;0
44045;PMS7003;29709;52.396;16.796;2023-04-25T05:57:01;1;1;0
44045;PMS7003;29709;52.396;16.796;2023-04-25T06:00:15;3;2;2
44045;PMS7003;29709;52.396;16.796;2023-04-25T06:03:28;2;2;1
44045;PMS7003;29709;52.396;16.796;2023-04-25T06:06:42;3;1;1
44045;PMS7003;29709;52.396;16.796;2023-04-25T06:09:55;2;1;0
44045;PMS7003;29709;52.396;16.796;2023-04-25T06:13:09;3;1;1
44045;PMS7003;29709;52.396;16.796;2023-04-25T06:16:22;0;0;0
44045;PMS7003;29709;52.396;16.796;2023-04-25T06:19:38;2;2;1
44045;PMS7003;29709;52.396;16.796;2023-04-25T06:22:51;1;1;1
44045;PMS7003;29709;52.396;16.796;2023-04-25T06:26:05;3;2;1
44045;PMS7003;29709;52.396;16.796;2023-04-25T06:29:18;2;0;0
44045;PMS7003;29709;52.396;16.796;2023-04-25T06:32:31;1;1;0
44045;PMS7003;29709;52.396;16.796;2023-04-25T06:35:46;1;1;1
44045;PMS7003;29709;52.396;16.796;2023-04-25T06:38:59;0;0;0
44045;PMS7003;29709;52.396;16.796;2023-04-25T06:42:13;1;1;1
44045;PMS7003;29709;52.396;16.796;2023-04-25T06:45:26;2;1;1
44045;PMS7003;29709;52.396;16.796;2023-04-25T06:48:39;0;0;0
44045;PMS7003;29709;52.396;16.796;2023-04-25T06:51:52;1;0;0
44045;PMS7003;29709;52.396;16.796;2023-04-25T06:55:06;1;1;0
44045;PMS7003;29709;52.396;16.796;2023-04-25T06:58:19;1;1;1
44045;PMS7003;29709;52.396;16.796;2023-04-25T07:01:32;2;2;1
44045;PMS7003;29709;52.396;16.796;2023-04-25T07:04:46;2;2;1
44045;PMS7003;29709;52.396;16.796;2023-04-25T07:07:59;3;2;2
44045;PMS7003;29709;52.396;16.796;2023-04-25T07:11:13;4;2;1
44045;PMS7003;29709;52.396;16.796;2023-04-25T07:14:26;2;1;1
44045;PMS7003;29709;52.396;16.796;2023-04-25T07:17:40;4;2;1
44045;PMS7003;29709;52.396;16.796;2023-04-25T07:20:53;3;2;2
44045;PMS7003;29709;52.396;16.796;2023-04-25T07:24:06;1;0;0
44045;PMS7003;29709;52.396;16.796;2023-04-25T07:27:20;2;1;1
44045;PMS7003;29709;52.396;16.796;2023-04-25T07:30:33;2;2;1
44045;PMS7003;29709;52.396;16.796;2023-04-25T07:33:47;2;1;1
44045;PMS7003;29709;52.396;16.796;2023-04-25T07:37:01;4;4;2
44045;PMS7003;29709;52.396;16.796;2023-04-25T07:40:14;2;2;1
44045;PMS7003;29709;52.396;16.796;2023-04-25T07:43:30;3;2;2
44045;PMS7003;29709;52.396;16.796;2023-04-25T07:46:43;4;1;1
44045;PMS7003;29709;52.396;16.796;2023-04-25T07:49:56;2;2;1
44045;PMS7003;29709;52.396;16.796;2023-04-25T07:53:10;2;2;1
44045;PMS7003;29709;52.396;16.796;2023-04-25T07:56:24;4;4;3
44045;PMS7003;29709;52.396;16.796;2023-04-25T07:59:37;4;3;2
44045;PMS7003;29709;52.396;16.796;2023-04-25T08:02:50;2;0;0
44045;PMS7003;29709;52.396;16.796;2023-04-25T08:06:03;2;2;1
44045;PMS7003;29709;52.396;16.796;2023-04-25T08:09:18;3;2;2
44045;PMS7003;29709;52.396;16.796;2023-04-25T08:12:32;2;2;1
44045;PMS7003;29709;52.396;16.796;2023-04-25T08:15:45;3;2;2
44045;PMS7003;29709;52.396;16.796;2023-04-25T08:18:59;3;2;2
44045;PMS7003;29709;52.396;16.796;2023-04-25T08:22:13;4;3;2
44045;PMS7003;29709;52.396;16.796;2023-04-25T08:26:02;4;4;3
44045;PMS7003;29709;52.396;16.796;2023-04-25T08:29:15;5;4;3
44045;PMS7003;29709;52.396;16.796;2023-04-25T08:32:29;6;4;3
44045;PMS7003;29709;52.396;16.796;2023-04-25T08:35:42;6;3;3
44045;PMS7003;29709;52.396;16.796;2023-04-25T08:38:57;4;3;3
44045;PMS7003;29709;52.396;16.796;2023-04-25T08:42:11;3;3;3
44045;PMS7003;29709;52.396;16.796;2023-04-25T08:45:26;2;2;2
44045;PMS7003;29709;52.396;16.796;2023-04-25T08:48:40;7;6;5
44045;PMS7003;29709;52.396;16.796;2023-04-25T08:51:58;5;4;3
44045;PMS7003;29709;52.396;16.796;2023-04-25T08:55:14;7;6;5
44045;PMS7003;29709;52.396;16.796;2023-04-25T08:58:29;4;3;3
44045;PMS7003;29709;52.396;16.796;2023-04-25T09:01:43;5;4;3
44045;PMS7003;29709;52.396;16.796;2023-04-25T09:04:57;6;5;4
44045;PMS7003;29709;52.396;16.796;2023-04-25T09:08:11;4;4;3
44045;PMS7003;29709;52.396;16.796;2023-04-25T09:11:24;4;4;3
44045;PMS7003;29709;52.396;16.796;2023-04-25T09:14:37;4;4;3
44045;PMS7003;29709;52.396;16.796;2023-04-25T09:21:11;4;3;3
44045;PMS7003;29709;52.396;16.796;2023-04-25T09:27:50;4;3;3
44045;PMS7003;29709;52.396;16.796;2023-04-25T09:31:05;2;2;2
44045;PMS7003;29709;52.396;16.796;2023-04-25T09:34:19;4;4;3
44045;PMS7003;29709;52.396;16.796;2023-04-25T09:37:32;3;2;2
44045;PMS7003;29709;52.396;16.796;2023-04-25T09:40:46;3;3;3
44045;PMS7003;29709;52.396;16.796;2023-04-25T09:44:02;6;4;4
44045;PMS7003;29709;52.396;16.796;2023-04-25T09:47:16;4;4;3
44045;PMS7003;29709;52.396;16.796;2023-04-25T09:50:30;4;4;3
44045;PMS7003;29709;52.396;16.796;2023-04-25T09:53:44;2;2;2
44045;PMS7003;29709;52.396;16.796;2023-04-25T09:57:04;3;3;2
44045;PMS7003;29709;52.396;16.796;2023-04-25T10:00:25;3;2;2
44045;PMS7003;29709;52.396;16.796;2023-04-25T10:03:39;2;2;2
44045;PMS7003;29709;52.396;16.796;2023-04-25T10:06:56;3;2;2
44045;PMS7003;29709;52.396;16.796;2023-04-25T10:10:12;3;3;2
44045;PMS7003;29709;52.396;16.796;2023-04-25T10:13:26;3;2;1
44045;PMS7003;29709;52.396;16.796;2023-04-25T10:16:41;1;1;1
44045;PMS7003;29709;52.396;16.796;2023-04-25T10:19:55;4;3;3
44045;PMS7003;29709;52.396;16.796;2023-04-25T10:26:29;1;1;1
44045;PMS7003;29709;52.396;16.796;2023-04-25T10:29:43;2;2;1
44045;PMS7003;29709;52.396;16.796;2023-04-25T10:32:58;3;2;2
44045;PMS7003;29709;52.396;16.796;2023-04-25T10:36:13;3;3;2
44045;PMS7003;29709;52.396;16.796;2023-04-25T10:39:27;2;2;2
44045;PMS7003;29709;52.396;16.796;2023-04-25T10:42:40;3;3;2
44045;PMS7003;29709;52.396;16.796;2023-04-25T10:45:53;4;3;2
44045;PMS7003;29709;52.396;16.796;2023-04-25T10:49:07;3;2;2
44045;PMS7003;29709;52.396;16.796;2023-04-25T10:52:26;2;1;1
44045;PMS7003;29709;52.396;16.796;2023-04-25T10:59:05;2;2;2
44045;PMS7003;29709;52.396;16.796;2023-04-25T11:02:19;2;2;2
44045;PMS7003;29709;52.396;16.796;2023-04-25T11:05:33;2;2;2
44045;PMS7003;29709;52.396;16.796;2023-04-25T11:08:49;4;2;1
44045;PMS7003;29709;52.396;16.796;2023-04-25T11:12:04;0;0;0
44045;PMS7003;29709;52.396;16.796;2023-04-25T11:15:19;6;3;2
44045;PMS7003;29709;52.396;16.796;2023-04-25T11:18:32;2;2;1
44045;PMS7003;29709;52.396;16.796;2023-04-25T11:21:46;2;2;2
44045;PMS7003;29709;52.396;16.796;2023-04-25T11:25:04;2;2;2
44045;PMS7003;29709;52.396;16.796;2023-04-25T11:28:21;2;2;2
44045;PMS7003;29709;52.396;16.796;2023-04-25T11:31:35;3;2;2
44045;PMS7003;29709;52.396;16.796;2023-04-25T11:34:48;3;2;2
44045;PMS7003;29709;52.396;16.796;2023-04-25T11:38:02;1;1;0
44045;PMS7003;29709;52.396;16.796;2023-04-25T11:41:15;1;1;1
44045;PMS7003;29709;52.396;16.796;2023-04-25T11:44:29;1;1;1
44045;PMS7003;29709;52.396;16.796;2023-04-25T11:47:43;2;1;1
44045;PMS7003;29709;52.396;16.796;2023-04-25T11:50:56;0;0;0
44045;PMS7003;29709;52.396;16.796;2023-04-25T11:54:09;2;2;2
44045;PMS7003;29709;52.396;16.796;2023-04-25T11:57:24;3;2;2
44045;PMS7003;29709;52.396;16.796;2023-04-25T12:00:37;2;2;2
44045;PMS7003;29709;52.396;16.796;2023-04-25T12:03:55;2;1;1
44045;PMS7003;29709;52.396;16.796;2023-04-25T12:07:09;2;2;2
44045;PMS7003;29709;52.396;16.796;2023-04-25T12:10:23;2;2;1
44045;PMS7003;29709;52.396;16.796;2023-04-25T12:13:38;2;2;1
44045;PMS7003;29709;52.396;16.796;2023-04-25T12:16:51;2;2;2
44045;PMS7003;29709;52.396;16.796;2023-04-25T12:20:08;1;1;1
44045;PMS7003;29709;52.396;16.796;2023-04-25T12:23:27;2;2;1
44045;PMS7003;29709;52.396;16.796;2023-04-25T12:30:00;1;0;0
44045;PMS7003;29709;52.396;16.796;2023-04-25T12:33:14;4;2;2
44045;PMS7003;29709;52.396;16.796;2023-04-25T12:36:27;2;1;1
44045;PMS7003;29709;52.396;16.796;2023-04-25T12:39:40;3;3;3
44045;PMS7003;29709;52.396;16.796;2023-04-25T12:42:54;3;3;2
44045;PMS7003;29709;52.396;16.796;2023-04-25T12:46:09;3;2;1
44045;PMS7003;29709;52.396;16.796;2023-04-25T12:49:23;2;2;2
44045;PMS7003;29709;52.396;16.796;2023-04-25T12:52:38;3;2;2
44045;PMS7003;29709;52.396;16.796;2023-04-25T12:55:51;1;1;1
44045;PMS7003;29709;52.396;16.796;2023-04-25T12:59:04;3;2;2
44045;PMS7003;29709;52.396;16.796;2023-04-25T13:02:17;2;1;1
44045;PMS7003;29709;52.396;16.796;2023-04-25T13:05:30;3;2;2
44045;PMS7003;29709;52.396;16.796;2023-04-25T13:08:44;0;0;0
44045;PMS7003;29709;52.396;16.796;2023-04-25T13:11:57;0;0;0
44045;PMS7003;29709;52.396;16.796;2023-04-25T13:15:11;0;0;0
44045;PMS7003;29709;52.396;16.796;2023-04-25T13:18:24;0;0;0
44045;PMS7003;29709;52.396;16.796;2023-04-25T13:21:39;0;0;0
44045;PMS7003;29709;52.396;16.796;2023-04-25T13:24:52;0;0;0
44045;PMS7003;29709;52.396;16.796;2023-04-25T13:28:06;0;0;0
44045;PMS7003;29709;52.396;16.796;2023-04-25T13:31:19;0;0;0
44045;PMS7003;29709;52.396;16.796;2023-04-25T13:34:33;0;0;0
44045;PMS7003;29709;52.396;16.796;2023-04-25T13:37:47;0;0;0
44045;PMS7003;29709;52.396;16.796;2023-04-25T13:41:00;0;0;0
44045;PMS7003;29709;52.396;16.796;2023-04-25T13:44:14;0;0;0
44045;PMS7003;29709;52.396;16.796;2023-04-25T13:47:28;1;0;0
44045;PMS7003;29709;52.396;16.796;2023-04-25T13:50:45;1;0;0
44045;PMS7003;29709;52.396;16.796;2023-04-25T13:53:58;1;1;0
44045;PMS7003;29709;52.396;16.796;2023-04-25T13:57:12;0;0;0
44045;PMS7003;29709;52.396;16.796;2023-04-25T14:00:25;1;0;0
44045;PMS7003;29709;52.396;16.796;2023-04-25T14:03:38;1;1;0
44045;PMS7003;29709;52.396;16.796;2023-04-25T14:06:52;0;0;0
44045;PMS7003;29709;52.396;16.796;2023-04-25T14:10:05;2;0;0
44045;PMS7003;29709;52.396;16.796;2023-04-25T14:13:19;0;0;0
44045;PMS7003;29709;52.396;16.796;2023-04-25T14:16:33;1;0;0
44045;PMS7003;29709;52.396;16.796;2023-04-25T14:19:49;2;1;1
44045;PMS7003;29709;52.396;16.796;2023-04-25T14:23:03;1;1;0
44045;PMS7003;29709;52.396;16.796;2023-04-25T14:26:17;0;0;0
44045;PMS7003;29709;52.396;16.796;2023-04-25T14:29:30;0;0;0
44045;PMS7003;29709;52.396;16.796;2023-04-25T14:32:44;0;0;0
44045;PMS7003;29709;52.396;16.796;2023-04-25T14:35:58;0;0;0
44045;PMS7003;29709;52.396;16.796;2023-04-25T14:39:12;0;0;0
44045;PMS7003;29709;52.396;16.796;2023-04-25T14:42:28;1;0;0
44045;PMS7003;29709;52.396;16.796;2023-04-25T14:45:41;0;0;0
44045;PMS7003;29709;52.396;16.796;2023-04-25T14:48:54;1;0;0
44045;PMS7003;29709;52.396;16.796;2023-04-25T14:52:08;0;0;0
44045;PMS7003;29709;52.396;16.796;2023-04-25T14:55:22;0;0;0
44045;PMS7003;29709;52.396;16.796;2023-04-25T14:58:35;0;0;0
44045;PMS7003;29709;52.396;16.796;2023-04-25T15:01:48;0;0;0
44045;PMS7003;29709;52.396;16.796;2023-04-25T15:05:03;1;0;0
44045;PMS7003;29709;52.396;16.796;2023-04-25T15:08:16;1;1;0
44045;PMS7003;29709;52.396;16.796;2023-04-25T15:11:29;1;0;0
44045;PMS7003;29709;52.396;16.796;2023-04-25T15:14:43;3;0;0
44045;PMS7003;29709;52.396;16.796;2023-04-25T15:17:56;1;1;0
44045;PMS7003;29709;52.396;16.796;2023-04-25T15:21:10;1;1;0
44045;PMS7003;29709;52.396;16.796;2023-04-25T15:24:23;1;1;0
44045;PMS7003;29709;52.396;16.796;2023-04-25T15:27:37;2;1;0
44045;PMS7003;29709;52.396;16.796;2023-04-25T15:30:56;0;0;0
44045;PMS7003;29709;52.396;16.796;2023-04-25T15:34:10;1;1;0
44045;PMS7003;29709;52.396;16.796;2023-04-25T15:37:23;0;0;0
44045;PMS7003;29709;52.396;16.796;2023-04-25T15:40:37;1;1;1
44045;PMS7003;29709;52.396;16.796;2023-04-25T15:43:50;0;0;0
44045;PMS7003;29709;52.396;16.796;2023-04-25T15:47:05;1;1;1
44045;PMS7003;29709;52.396;16.796;2023-04-25T15:50:19;1;1;0
44045;PMS7003;29709;52.396;16.796;2023-04-25T15:53:33;2;1;0
44045;PMS7003;29709;52.396;16.796;2023-04-25T15:56:46;2;0;0
44045;PMS7003;29709;52.396;16.796;2023-04-25T16:00:00;4;1;0
44045;PMS7003;29709;52.396;16.796;2023-04-25T16:03:24;1;1;1
44045;PMS7003;29709;52.396;16.796;2023-04-25T16:06:39;1;0;0
44045;PMS7003;29709;52.396;16.796;2023-04-25T16:09:54;1;0;0
44045;PMS7003;29709;52.396;16.796;2023-04-25T16:13:08;0;0;0
44045;PMS7003;29709;52.396;16.796;2023-04-25T16:16:23;0;0;0
44045;PMS7003;29709;52.396;16.796;2023-04-25T16:19:36;1;1;0
44045;PMS7003;29709;52.396;16.796;2023-04-25T16:22:49;2;1;0
44045;PMS7003;29709;52.396;16.796;2023-04-25T16:26:02;1;1;1
44045;PMS7003;29709;52.396;16.796;2023-04-25T16:29:16;0;0;0
44045;PMS7003;29709;52.396;16.796;2023-04-25T16:32:29;2;1;1
44045;PMS7003;29709;52.396;16.796;2023-04-25T16:35:42;3;1;0
44045;PMS7003;29709;52.396;16.796;2023-04-25T16:38:56;1;1;0
44045;PMS7003;29709;52.396;16.796;2023-04-25T16:42:09;0;0;0
44045;PMS7003;29709;52.396;16.796;2023-04-25T16:45:22;1;1;0
44045;PMS7003;29709;52.396;16.796;2023-04-25T16:48:36;5;1;0
44045;PMS7003;29709;52.396;16.796;2023-04-25T16:51:49;2;0;0
44045;PMS7003;29709;52.396;16.796;2023-04-25T16:55:03;1;0;0
44045;PMS7003;29709;52.396;16.796;2023-04-25T16:58:17;1;1;0
44045;PMS7003;29709;52.396;16.796;2023-04-25T17:01:30;2;1;1
44045;PMS7003;29709;52.396;16.796;2023-04-25T17:04:44;0;0;0
44045;PMS7003;29709;52.396;16.796;2023-04-25T17:07:57;4;2;1
44045;PMS7003;29709;52.396;16.796;2023-04-25T17:11:11;1;1;1
44045;PMS7003;29709;52.396;16.796;2023-04-25T17:14:25;0;0;0
44045;PMS7003;29709;52.396;16.796;2023-04-25T17:17:38;1;1;0
44045;PMS7003;29709;52.396;16.796;2023-04-25T17:20:52;2;1;1
44045;PMS7003;29709;52.396;16.796;2023-04-25T17:24:06;1;0;0
44045;PMS7003;29709;52.396;16.796;2023-04-25T17:27:21;0;0;0
44045;PMS7003;29709;52.396;16.796;2023-04-25T17:30:34;1;0;0
44045;PMS7003;29709;52.396;16.796;2023-04-25T17:33:48;3;1;1
44045;PMS7003;29709;52.396;16.796;2023-04-25T17:37:02;1;0;0
44045;PMS7003;29709;52.396;16.796;2023-04-25T17:40:15;2;1;1
44045;PMS7003;29709;52.396;16.796;2023-04-25T17:43:29;1;1;0
44045;PMS7003;29709;52.396;16.796;2023-04-25T17:46:46;1;1;1
44045;PMS7003;29709;52.396;16.796;2023-04-25T17:49:59;4;2;1
44045;PMS7003;29709;52.396;16.796;2023-04-25T17:53:12;3;2;1
44045;PMS7003;29709;52.396;16.796;2023-04-25T17:56:26;1;1;0
44045;PMS7003;29709;52.396;16.796;2023-04-25T17:59:39;1;1;0
44045;PMS7003;29709;52.396;16.796;2023-04-25T18:02:53;1;0;0
44045;PMS7003;29709;52.396;16.796;2023-04-25T18:06:06;1;1;1
44045;PMS7003;29709;52.396;16.796;2023-04-25T18:09:19;2;1;0
44045;PMS7003;29709;52.396;16.796;2023-04-25T18:12:35;12;10;8
44045;PMS7003;29709;52.396;16.796;2023-04-25T18:15:49;5;4;2
44045;PMS7003;29709;52.396;16.796;2023-04-25T18:19:03;12;10;8
44045;PMS7003;29709;52.396;16.796;2023-04-25T18:22:27;4;3;1
44045;PMS7003;29709;52.396;16.796;2023-04-25T18:25:40;13;11;9
44045;PMS7003;29709;52.396;16.796;2023-04-25T18:28:53;9;7;4
44045;PMS7003;29709;52.396;16.796;2023-04-25T18:32:07;9;9;5
44045;PMS7003;29709;52.396;16.796;2023-04-25T18:35:20;12;12;8
44045;PMS7003;29709;52.396;16.796;2023-04-25T18:38:34;14;13;10
44045;PMS7003;29709;52.396;16.796;2023-04-25T18:41:47;3;3;2
44045;PMS7003;29709;52.396;16.796;2023-04-25T18:45:00;6;3;3
44045;PMS7003;29709;52.396;16.796;2023-04-25T18:48:15;2;2;2
44045;PMS7003;29709;52.396;16.796;2023-04-25T18:51:28;6;2;1
44045;PMS7003;29709;52.396;16.796;2023-04-25T18:54:43;5;5;4
44045;PMS7003;29709;52.396;16.796;2023-04-25T18:57:57;3;2;1
44045;PMS7003;29709;52.396;16.796;2023-04-25T19:01:10;3;2;2
44045;PMS7003;29709;52.396;16.796;2023-04-25T19:04:24;2;2;1
44045;PMS7003;29709;52.396;16.796;2023-04-25T19:07:37;4;3;3
44045;PMS7003;29709;52.396;16.796;2023-04-25T19:10:52;9;6;4
44045;PMS7003;29709;52.396;16.796;2023-04-25T19:14:07;3;2;1
44045;PMS7003;29709;52.396;16.796;2023-04-25T19:17:20;6;4;3
44045;PMS7003;29709;52.396;16.796;2023-04-25T19:20:33;3;3;2
44045;PMS7003;29709;52.396;16.796;2023-04-25T19:23:47;3;2;0
44045;PMS7003;29709;52.396;16.796;2023-04-25T19:27:00;4;3;2
44045;PMS7003;29709;52.396;16.796;2023-04-25T19:30:15;2;0;0
44045;PMS7003;29709;52.396;16.796;2023-04-25T19:33:28;4;2;2
44045;PMS7003;29709;52.396;16.796;2023-04-25T19:36:41;4;3;1
44045;PMS7003;29709;52.396;16.796;2023-04-25T19:39:55;2;2;1
44045;PMS7003;29709;52.396;16.796;2023-04-25T19:43:09;3;1;1
44045;PMS7003;29709;52.396;16.796;2023-04-25T19:46:23;2;1;0
44045;PMS7003;29709;52.396;16.796;2023-04-25T19:49:37;1;1;0
44045;PMS7003;29709;52.396;16.796;2023-04-25T19:52:50;1;1;0
44045;PMS7003;29709;52.396;16.796;2023-04-25T19:56:04;1;1;1
44045;PMS7003;29709;52.396;16.796;2023-04-25T19:59:17;2;1;1
44045;PMS7003;29709;52.396;16.796;2023-04-25T20:02:30;3;2;1
44045;PMS7003;29709;52.396;16.796;2023-04-25T20:05:43;2;2;2
44045;PMS7003;29709;52.396;16.796;2023-04-25T20:08:56;2;2;1
44045;PMS7003;29709;52.396;16.796;2023-04-25T20:12:10;1;1;0
44045;PMS7003;29709;52.396;16.796;2023-04-25T20:15:24;3;1;1
44045;PMS7003;29709;52.396;16.796;2023-04-25T20:18:37;3;1;1
44045;PMS7003;29709;52.396;16.796;2023-04-25T20:21:51;5;2;1
44045;PMS7003;29709;52.396;16.796;2023-04-25T20:25:04;3;0;0
44045;PMS7003;29709;52.396;16.796;2023-04-25T20:28:21;4;2;1
44045;PMS7003;29709;52.396;16.796;2023-04-25T20:31:34;4;3;2
44045;PMS7003;29709;52.396;16.796;2023-04-25T20:34:49;2;2;2
44045;PMS7003;29709;52.396;16.796;2023-04-25T20:38:02;3;1;1
44045;PMS7003;29709;52.396;16.796;2023-04-25T20:41:15;5;5;4
44045;PMS7003;29709;52.396;16.796;2023-04-25T20:44:28;4;4;3
44045;PMS7003;29709;52.396;16.796;2023-04-25T20:47:42;4;3;2
44045;PMS7003;29709;52.396;16.796;2023-04-25T20:50:56;4;4;2
44045;PMS7003;29709;52.396;16.796;2023-04-25T20:54:13;3;2;1
44045;PMS7003;29709;52.396;16.796;2023-04-25T20:57:27;4;2;2
44045;PMS7003;29709;52.396;16.796;2023-04-25T21:00:40;2;2;1
44045;PMS7003;29709;52.396;16.796;2023-04-25T21:03:54;0;0;0
44045;PMS7003;29709;52.396;16.796;2023-04-25T21:07:07;4;2;1
44045;PMS7003;29709;52.396;16.796;2023-04-25T21:10:20;3;3;2
44045;PMS7003;29709;52.396;16.796;2023-04-25T21:13:33;4;3;2
44045;PMS7003;29709;52.396;16.796;2023-04-25T21:16:47;5;3;2
44045;PMS7003;29709;52.396;16.796;2023-04-25T21:20:00;6;3;3
44045;PMS7003;29709;52.396;16.796;2023-04-25T21:23:14;3;3;2
44045;PMS7003;29709;52.396;16.796;2023-04-25T21:26:29;3;3;2
44045;PMS7003;29709;52.396;16.796;2023-04-25T21:29:43;4;3;2
44045;PMS7003;29709;52.396;16.796;2023-04-25T21:32:57;4;2;1
44045;PMS7003;29709;52.396;16.796;2023-04-25T21:36:10;3;3;2
44045;PMS7003;29709;52.396;16.796;2023-04-25T21:39:23;2;2;1
44045;PMS7003;29709;52.396;16.796;2023-04-25T21:42:37;3;3;2